sensor_id;sensor_type;location;lat;lon;timestamp;pressure;altitude;pressure_sealevel;temperature;humidity
74163;BME280;62515;52.758;5.076;2023-11-19T00:00:51;100625.47;;;12.71;100.00
74163;BME280;62515;52.758;5.076;2023-11-19T00:03:20;100610.34;;;12.61;100.00
74163;BME280;62515;52.758;5.076;2023-11-19T00:05:46;100615.78;;;12.59;100.00
74163;BME280;62515;52.758;5.076;2023-11-19T00:08:13;100603.22;;;12.50;100.00
74163;BME280;62515;52.758;5.076;2023-11-19T00:10:40;100602.34;;;12.49;100.00
74163;BME280;62515;52.758;5.076;2023-11-19T00:13:06;100620.34;;;12.47;100.00
74163;BME280;62515;52.758;5.076;2023-11-19T00:15:33;100625.53;;;12.49;100.00
74163;BME280;62515;52.758;5.076;2023-11-19T00:18:01;100617.84;;;12.55;100.00
74163;BME280;62515;52.758;5.076;2023-11-19T00:20:28;100620.94;;;12.51;100.00
74163;BME280;62515;52.758;5.076;2023-11-19T00:22:55;100620.44;;;12.46;100.00
74163;BME280;62515;52.758;5.076;2023-11-19T00:25:22;100617.78;;;12.46;100.00
74163;BME280;62515;52.758;5.076;2023-11-19T00:27:49;100610.69;;;12.56;100.00
74163;BME280;62515;52.758;5.076;2023-11-19T00:30:16;100610.00;;;12.54;100.00
74163;BME280;62515;52.758;5.076;2023-11-19T00:32:42;100596.16;;;12.49;100.00
74163;BME280;62515;52.758;5.076;2023-11-19T00:35:11;100602.69;;;12.35;100.00
74163;BME280;62515;52.758;5.076;2023-11-19T00:37:37;100611.25;;;12.39;100.00
74163;BME280;62515;52.758;5.076;2023-11-19T00:40:05;100612.69;;;12.43;100.00
74163;BME280;62515;52.758;5.076;2023-11-19T00:42:32;100617.41;;;12.50;100.00
74163;BME280;62515;52.758;5.076;2023-11-19T00:44:59;100610.97;;;12.53;100.00
74163;BME280;62515;52.758;5.076;2023-11-19T00:47:26;100615.84;;;12.48;100.00
74163;BME280;62515;52.758;5.076;2023-11-19T00:49:53;100603.97;;;12.41;100.00
74163;BME280;62515;52.758;5.076;2023-11-19T00:52:21;100607.63;;;12.40;100.00
74163;BME280;62515;52.758;5.076;2023-11-19T00:54:47;100615.63;;;12.40;100.00
74163;BME280;62515;52.758;5.076;2023-11-19T00:57:14;100613.81;;;12.40;100.00
74163;BME280;62515;52.758;5.076;2023-11-19T00:59:41;100592.81;;;12.36;100.00
74163;BME280;62515;52.758;5.076;2023-11-19T01:02:08;100587.78;;;12.22;100.00
74163;BME280;62515;52.758;5.076;2023-11-19T01:04:35;100590.66;;;12.30;100.00
74163;BME280;62515;52.758;5.076;2023-11-19T01:07:03;100585.63;;;12.16;100.00
74163;BME280;62515;52.758;5.076;2023-11-19T01:09:31;100586.34;;;12.18;100.00
74163;BME280;62515;52.758;5.076;2023-11-19T01:11:58;100579.31;;;12.17;100.00
74163;BME280;62515;52.758;5.076;2023-11-19T01:14:26;100567.22;;;12.13;100.00
74163;BME280;62515;52.758;5.076;2023-11-19T01:16:53;100586.34;;;12.18;100.00
74163;BME280;62515;52.758;5.076;2023-11-19T01:19:19;100585.16;;;12.11;100.00
74163;BME280;62515;52.758;5.076;2023-11-19T01:21:46;100583.09;;;12.14;100.00
74163;BME280;62515;52.758;5.076;2023-11-19T01:24:13;100578.09;;;12.21;100.00
74163;BME280;62515;52.758;5.076;2023-11-19T01:26:42;100574.56;;;12.20;100.00
74163;BME280;62515;52.758;5.076;2023-11-19T01:29:09;100571.31;;;12.17;100.00
74163;BME280;62515;52.758;5.076;2023-11-19T01:31:36;100583.78;;;12.16;100.00
74163;BME280;62515;52.758;5.076;2023-11-19T01:34:03;100583.69;;;12.06;100.00
74163;BME280;62515;52.758;5.076;2023-11-19T01:36:29;100593.91;;;12.01;100.00
74163;BME280;62515;52.758;5.076;2023-11-19T01:38:56;100607.84;;;12.05;100.00
74163;BME280;62515;52.758;5.076;2023-11-19T01:41:23;100615.00;;;12.04;100.00
74163;BME280;62515;52.758;5.076;2023-11-19T01:43:51;100621.53;;;12.00;100.00
74163;BME280;62515;52.758;5.076;2023-11-19T01:46:18;100620.44;;;12.03;100.00
74163;BME280;62515;52.758;5.076;2023-11-19T01:48:46;100622.03;;;12.05;100.00
74163;BME280;62515;52.758;5.076;2023-11-19T01:51:13;100618.88;;;12.12;100.00
74163;BME280;62515;52.758;5.076;2023-11-19T01:53:40;100623.47;;;12.10;100.00
74163;BME280;62515;52.758;5.076;2023-11-19T01:56:08;100625.16;;;12.11;100.00
74163;BME280;62515;52.758;5.076;2023-11-19T01:58:36;100625.66;;;12.16;100.00
74163;BME280;62515;52.758;5.076;2023-11-19T02:01:05;100627.38;;;12.05;100.00
74163;BME280;62515;52.758;5.076;2023-11-19T02:03:33;100633.91;;;12.01;100.00
74163;BME280;62515;52.758;5.076;2023-11-19T02:06:00;100637.53;;;12.00;100.00
74163;BME280;62515;52.758;5.076;2023-11-19T02:08:27;100634.38;;;12.18;100.00
74163;BME280;62515;52.758;5.076;2023-11-19T02:10:56;100616.16;;;12.23;100.00
74163;BME280;62515;52.758;5.076;2023-11-19T02:13:23;100619.56;;;12.25;100.00
74163;BME280;62515;52.758;5.076;2023-11-19T02:15:50;100614.47;;;12.22;100.00
74163;BME280;62515;52.758;5.076;2023-11-19T02:18:22;100625.50;;;12.17;100.00
74163;BME280;62515;52.758;5.076;2023-11-19T02:20:49;100614.38;;;12.12;100.00
74163;BME280;62515;52.758;5.076;2023-11-19T02:23:17;100618.13;;;12.10;100.00
74163;BME280;62515;52.758;5.076;2023-11-19T02:25:49;100617.41;;;12.07;100.00
74163;BME280;62515;52.758;5.076;2023-11-19T02:28:19;100618.78;;;12.02;100.00
74163;BME280;62515;52.758;5.076;2023-11-19T02:30:46;100620.13;;;11.96;100.00
74163;BME280;62515;52.758;5.076;2023-11-19T02:33:13;100604.44;;;12.03;100.00
74163;BME280;62515;52.758;5.076;2023-11-19T02:35:40;100613.09;;;11.95;100.00
74163;BME280;62515;52.758;5.076;2023-11-19T02:38:07;100610.88;;;12.00;100.00
74163;BME280;62515;52.758;5.076;2023-11-19T02:40:34;100606.41;;;12.01;100.00
74163;BME280;62515;52.758;5.076;2023-11-19T02:43:00;100615.00;;;12.04;100.00
74163;BME280;62515;52.758;5.076;2023-11-19T02:45:29;100614.72;;;12.19;100.00
74163;BME280;62515;52.758;5.076;2023-11-19T02:47:56;100597.38;;;12.24;100.00
74163;BME280;62515;52.758;5.076;2023-11-19T02:50:23;100609.09;;;12.33;100.00
74163;BME280;62515;52.758;5.076;2023-11-19T02:52:50;100601.75;;;12.25;100.00
74163;BME280;62515;52.758;5.076;2023-11-19T02:55:17;100607.78;;;12.27;100.00
74163;BME280;62515;52.758;5.076;2023-11-19T02:57:44;100593.66;;;12.16;100.00
74163;BME280;62515;52.758;5.076;2023-11-19T03:00:12;100608.19;;;12.12;100.00
74163;BME280;62515;52.758;5.076;2023-11-19T03:02:41;100608.09;;;12.02;100.00
74163;BME280;62515;52.758;5.076;2023-11-19T03:05:08;100618.28;;;11.97;100.00
74163;BME280;62515;52.758;5.076;2023-11-19T03:07:34;100606.03;;;11.94;100.00
74163;BME280;62515;52.758;5.076;2023-11-19T03:10:01;100610.28;;;11.97;100.00
74163;BME280;62515;52.758;5.076;2023-11-19T03:12:28;100622.91;;;11.95;100.00
74163;BME280;62515;52.758;5.076;2023-11-19T03:14:54;100609.66;;;11.93;100.00
74163;BME280;62515;52.758;5.076;2023-11-19T03:17:21;100598.03;;;11.94;100.00
74163;BME280;62515;52.758;5.076;2023-11-19T03:19:49;100599.00;;;11.93;100.00
74163;BME280;62515;52.758;5.076;2023-11-19T03:22:16;100595.28;;;11.85;100.00
74163;BME280;62515;52.758;5.076;2023-11-19T03:24:43;100593.81;;;11.81;100.00
74163;BME280;62515;52.758;5.076;2023-11-19T03:27:09;100590.53;;;11.88;100.00
74163;BME280;62515;52.758;5.076;2023-11-19T03:29:36;100592.00;;;11.92;100.00
74163;BME280;62515;52.758;5.076;2023-11-19T03:32:04;100588.84;;;11.87;100.00
74163;BME280;62515;52.758;5.076;2023-11-19T03:34:30;100582.19;;;11.93;100.00
74163;BME280;62515;52.758;5.076;2023-11-19T03:36:59;100590.28;;;11.91;100.00
74163;BME280;62515;52.758;5.076;2023-11-19T03:39:26;100585.81;;;11.92;100.00
74163;BME280;62515;52.758;5.076;2023-11-19T03:41:54;100594.78;;;11.91;100.00
74163;BME280;62515;52.758;5.076;2023-11-19T03:44:21;100595.13;;;11.97;100.00
74163;BME280;62515;52.758;5.076;2023-11-19T03:46:48;100589.09;;;11.95;100.00
74163;BME280;62515;52.758;5.076;2023-11-19T03:49:15;100591.16;;;11.92;100.00
74163;BME280;62515;52.758;5.076;2023-11-19T03:51:41;100589.44;;;11.91;100.00
74163;BME280;62515;52.758;5.076;2023-11-19T03:54:09;100605.09;;;11.84;100.00
74163;BME280;62515;52.758;5.076;2023-11-19T03:56:36;100598.53;;;11.77;100.00
74163;BME280;62515;52.758;5.076;2023-11-19T03:59:03;100596.63;;;11.79;100.00
74163;BME280;62515;52.758;5.076;2023-11-19T04:01:30;100595.16;;;11.75;100.00
74163;BME280;62515;52.758;5.076;2023-11-19T04:03:56;100591.25;;;11.68;100.00
74163;BME280;62515;52.758;5.076;2023-11-19T04:06:23;100595.41;;;11.72;100.00
74163;BME280;62515;52.758;5.076;2023-11-19T04:08:50;100603.63;;;11.80;100.00
74163;BME280;62515;52.758;5.076;2023-11-19T04:11:18;100613.72;;;11.77;100.00
74163;BME280;62515;52.758;5.076;2023-11-19T04:13:45;100610.91;;;11.67;100.00
74163;BME280;62515;52.758;5.076;2023-11-19T04:16:12;100612.13;;;11.63;100.00
74163;BME280;62515;52.758;5.076;2023-11-19T04:18:38;100618.16;;;11.65;100.00
74163;BME280;62515;52.758;5.076;2023-11-19T04:21:06;100609.72;;;11.71;100.00
74163;BME280;62515;52.758;5.076;2023-11-19T04:23:33;100613.72;;;11.77;100.00
74163;BME280;62515;52.758;5.076;2023-11-19T04:26:02;100603.06;;;11.77;100.00
74163;BME280;62515;52.758;5.076;2023-11-19T04:28:33;100614.06;;;11.72;100.00
74163;BME280;62515;52.758;5.076;2023-11-19T04:30:59;100614.53;;;11.66;100.00
74163;BME280;62515;52.758;5.076;2023-11-19T04:33:26;100608.97;;;11.69;100.00
74163;BME280;62515;52.758;5.076;2023-11-19T04:35:53;100617.69;;;11.60;100.00
74163;BME280;62515;52.758;5.076;2023-11-19T04:38:20;100617.19;;;11.55;100.00
74163;BME280;62515;52.758;5.076;2023-11-19T04:40:46;100601.09;;;11.57;100.00
74163;BME280;62515;52.758;5.076;2023-11-19T04:43:13;100617.69;;;11.49;100.00
74163;BME280;62515;52.758;5.076;2023-11-19T04:45:41;100608.97;;;11.47;100.00
74163;BME280;62515;52.758;5.076;2023-11-19T04:48:08;100606.78;;;11.52;100.00
74163;BME280;62515;52.758;5.076;2023-11-19T04:50:35;100609.94;;;11.46;100.00
74163;BME280;62515;52.758;5.076;2023-11-19T04:53:01;100620.84;;;11.54;100.00
74163;BME280;62515;52.758;5.076;2023-11-19T04:55:28;100619.00;;;11.54;100.00
74163;BME280;62515;52.758;5.076;2023-11-19T04:57:55;100630.50;;;11.33;100.00
74163;BME280;62515;52.758;5.076;2023-11-19T05:00:22;100620.13;;;11.41;100.00
74163;BME280;62515;52.758;5.076;2023-11-19T05:02:51;100617.69;;;11.49;100.00
74163;BME280;62515;52.758;5.076;2023-11-19T05:05:18;100620.72;;;11.55;100.00
74163;BME280;62515;52.758;5.076;2023-11-19T05:07:45;100623.28;;;11.57;100.00
74163;BME280;62515;52.758;5.076;2023-11-19T05:10:12;100610.66;;;11.59;100.00
74163;BME280;62515;52.758;5.076;2023-11-19T05:12:38;100624.94;;;11.58;100.00
74163;BME280;62515;52.758;5.076;2023-11-19T05:15:06;100633.66;;;11.49;100.00
74163;BME280;62515;52.758;5.076;2023-11-19T05:17:33;100626.53;;;11.49;100.00
74163;BME280;62515;52.758;5.076;2023-11-19T05:20:02;100630.78;;;11.41;100.00
74163;BME280;62515;52.758;5.076;2023-11-19T05:22:28;100627.13;;;11.42;100.00
74163;BME280;62515;52.758;5.076;2023-11-19T05:24:55;100635.84;;;11.55;100.00
74163;BME280;62515;52.758;5.076;2023-11-19T05:27:22;100629.06;;;11.62;100.00
74163;BME280;62515;52.758;5.076;2023-11-19T05:29:49;100622.06;;;11.72;100.00
74163;BME280;62515;52.758;5.076;2023-11-19T05:32:15;100632.03;;;11.70;100.00
74163;BME280;62515;52.758;5.076;2023-11-19T05:34:42;100627.59;;;11.58;100.00
74163;BME280;62515;52.758;5.076;2023-11-19T05:37:13;100627.75;;;11.57;100.00
74163;BME280;62515;52.758;5.076;2023-11-19T05:39:40;100616.97;;;11.47;100.00
74163;BME280;62515;52.758;5.076;2023-11-19T05:42:06;100630.78;;;11.41;100.00
74163;BME280;62515;52.758;5.076;2023-11-19T05:44:33;100633.19;;;11.44;100.00
74163;BME280;62515;52.758;5.076;2023-11-19T05:47:01;100631.97;;;11.48;100.00
74163;BME280;62515;52.758;5.076;2023-11-19T05:49:28;100627.50;;;11.48;100.00
74163;BME280;62515;52.758;5.076;2023-11-19T05:51:55;100633.06;;;11.45;100.00
74163;BME280;62515;52.758;5.076;2023-11-19T05:54:23;100624.22;;;11.45;100.00
74163;BME280;62515;52.758;5.076;2023-11-19T05:56:49;100622.16;;;11.37;100.00
74163;BME280;62515;52.758;5.076;2023-11-19T05:59:16;100611.63;;;11.36;100.00
74163;BME280;62515;52.758;5.076;2023-11-19T06:01:43;100613.19;;;11.27;100.00
74163;BME280;62515;52.758;5.076;2023-11-19T06:04:10;100630.13;;;11.26;100.00
74163;BME280;62515;52.758;5.076;2023-11-19T06:06:37;100624.69;;;11.39;100.00
74163;BME280;62515;52.758;5.076;2023-11-19T06:09:04;100625.06;;;11.45;100.00
74163;BME280;62515;52.758;5.076;2023-11-19T06:11:35;100614.91;;;11.50;100.00
74163;BME280;62515;52.758;5.076;2023-11-19T06:14:01;100616.72;;;11.50;100.00
74163;BME280;62515;52.758;5.076;2023-11-19T06:16:28;100618.41;;;11.51;100.00
74163;BME280;62515;52.758;5.076;2023-11-19T06:18:55;100617.56;;;11.50;100.00
74163;BME280;62515;52.758;5.076;2023-11-19T06:21:22;100604.25;;;11.39;100.00
74163;BME280;62515;52.758;5.076;2023-11-19T06:23:49;100613.91;;;11.29;100.00
74163;BME280;62515;52.758;5.076;2023-11-19T06:26:16;100616.72;;;11.39;100.00
74163;BME280;62515;52.758;5.076;2023-11-19T06:28:44;100619.50;;;11.37;100.00
74163;BME280;62515;52.758;5.076;2023-11-19T06:31:10;100624.97;;;11.47;100.00
74163;BME280;62515;52.758;5.076;2023-11-19T06:33:37;100610.53;;;11.49;100.00
74163;BME280;62515;52.758;5.076;2023-11-19T06:36:05;100607.97;;;11.48;100.00
74163;BME280;62515;52.758;5.076;2023-11-19T06:38:32;100602.28;;;11.41;100.00
74163;BME280;62515;52.758;5.076;2023-11-19T06:40:58;100597.69;;;11.32;100.00
74163;BME280;62515;52.758;5.076;2023-11-19T06:43:25;100602.66;;;11.15;100.00
74163;BME280;62515;52.758;5.076;2023-11-19T06:45:53;100614.63;;;11.20;100.00
74163;BME280;62515;52.758;5.076;2023-11-19T06:48:20;100621.66;;;11.21;100.00
74163;BME280;62515;52.758;5.076;2023-11-19T06:50:47;100631.72;;;11.29;100.00
74163;BME280;62515;52.758;5.076;2023-11-19T06:53:13;100639.09;;;11.25;100.00
74163;BME280;62515;52.758;5.076;2023-11-19T06:55:40;100626.88;;;11.23;100.00
74163;BME280;62515;52.758;5.076;2023-11-19T06:58:07;100635.94;;;11.20;100.00
74163;BME280;62515;52.758;5.076;2023-11-19T07:00:34;100630.72;;;11.19;100.00
74163;BME280;62515;52.758;5.076;2023-11-19T07:03:02;100636.81;;;11.21;100.00
74163;BME280;62515;52.758;5.076;2023-11-19T07:05:29;100638.03;;;11.28;100.00
74163;BME280;62515;52.758;5.076;2023-11-19T07:07:55;100633.31;;;11.31;100.00
74163;BME280;62515;52.758;5.076;2023-11-19T07:10:22;100645.03;;;11.18;100.00
74163;BME280;62515;52.758;5.076;2023-11-19T07:12:49;100644.28;;;11.16;100.00
74163;BME280;62515;52.758;5.076;2023-11-19T07:15:16;100645.03;;;11.18;100.00
74163;BME280;62515;52.758;5.076;2023-11-19T07:17:43;100653.53;;;11.34;100.00
74163;BME280;62515;52.758;5.076;2023-11-19T07:20:11;100642.25;;;11.30;100.00
74163;BME280;62515;52.758;5.076;2023-11-19T07:22:38;100650.84;;;11.45;100.00
74163;BME280;62515;52.758;5.076;2023-11-19T07:25:06;100641.94;;;11.57;100.00
74163;BME280;62515;52.758;5.076;2023-11-19T07:27:33;100641.06;;;11.57;100.00
74163;BME280;62515;52.758;5.076;2023-11-19T07:30:00;100630.63;;;11.42;100.00
74163;BME280;62515;52.758;5.076;2023-11-19T07:32:27;100619.13;;;11.42;100.00
74163;BME280;62515;52.758;5.076;2023-11-19T07:34:54;100627.50;;;11.37;100.00
74163;BME280;62515;52.758;5.076;2023-11-19T07:37:22;100640.44;;;11.42;100.00
74163;BME280;62515;52.758;5.076;2023-11-19T07:39:49;100649.88;;;11.35;100.00
74163;BME280;62515;52.758;5.076;2023-11-19T07:42:16;100654.50;;;11.33;100.00
74163;BME280;62515;52.758;5.076;2023-11-19T07:44:43;100661.38;;;11.35;100.00
74163;BME280;62515;52.758;5.076;2023-11-19T07:47:09;100653.63;;;11.32;100.00
74163;BME280;62515;52.758;5.076;2023-11-19T07:49:36;100664.81;;;11.37;100.00
74163;BME280;62515;52.758;5.076;2023-11-19T07:52:03;100657.53;;;11.39;100.00
74163;BME280;62515;52.758;5.076;2023-11-19T07:54:47;100655.97;;;11.59;100.00
74163;BME280;62515;52.758;5.076;2023-11-19T07:57:15;100663.03;;;11.71;100.00
74163;BME280;62515;52.758;5.076;2023-11-19T07:59:41;100666.44;;;11.73;100.00
74163;BME280;62515;52.758;5.076;2023-11-19T08:02:08;100668.97;;;11.75;100.00
74163;BME280;62515;52.758;5.076;2023-11-19T08:04:35;100663.84;;;11.61;100.00
74163;BME280;62515;52.758;5.076;2023-11-19T08:07:03;100654.41;;;11.57;100.00
74163;BME280;62515;52.758;5.076;2023-11-19T08:09:30;100664.78;;;11.48;100.00
74163;BME280;62515;52.758;5.076;2023-11-19T08:11:58;100676.53;;;11.46;100.00
74163;BME280;62515;52.758;5.076;2023-11-19T08:14:25;100670.38;;;11.45;100.00
74163;BME280;62515;52.758;5.076;2023-11-19T08:16:52;100677.41;;;11.46;100.00
74163;BME280;62515;52.758;5.076;2023-11-19T08:19:18;100679.94;;;11.48;100.00
74163;BME280;62515;52.758;5.076;2023-11-19T08:21:45;100673.41;;;11.52;100.00
74163;BME280;62515;52.758;5.076;2023-11-19T08:24:12;100672.19;;;11.56;100.00
74163;BME280;62515;52.758;5.076;2023-11-19T08:26:39;100675.25;;;11.63;100.00
74163;BME280;62515;52.758;5.076;2023-11-19T08:29:07;100671.53;;;11.76;100.00
74163;BME280;62515;52.758;5.076;2023-11-19T08:31:34;100673.19;;;11.77;100.00
74163;BME280;62515;52.758;5.076;2023-11-19T08:34:01;100667.41;;;11.83;100.00
74163;BME280;62515;52.758;5.076;2023-11-19T08:36:29;100683.88;;;11.88;100.00
74163;BME280;62515;52.758;5.076;2023-11-19T08:38:56;100683.63;;;12.02;100.00
74163;BME280;62515;52.758;5.076;2023-11-19T08:41:23;100672.47;;;12.09;100.00
74163;BME280;62515;52.758;5.076;2023-11-19T08:43:50;100672.47;;;12.09;100.00
74163;BME280;62515;52.758;5.076;2023-11-19T08:46:18;100672.22;;;12.12;100.00
74163;BME280;62515;52.758;5.076;2023-11-19T08:48:45;100662.00;;;12.28;100.00
74163;BME280;62515;52.758;5.076;2023-11-19T08:51:12;100676.41;;;12.36;100.00
74163;BME280;62515;52.758;5.076;2023-11-19T08:53:39;100663.28;;;12.44;100.00
74163;BME280;62515;52.758;5.076;2023-11-19T08:56:06;100665.13;;;12.33;100.00
74163;BME280;62515;52.758;5.076;2023-11-19T08:58:33;100669.09;;;12.49;100.00
74163;BME280;62515;52.758;5.076;2023-11-19T09:01:00;100668.47;;;12.57;100.00
74163;BME280;62515;52.758;5.076;2023-11-19T09:03:31;100674.00;;;12.65;100.00
74163;BME280;62515;52.758;5.076;2023-11-19T09:05:58;100658.50;;;12.59;100.00
74163;BME280;62515;52.758;5.076;2023-11-19T09:08:26;100674.75;;;12.67;100.00
74163;BME280;62515;52.758;5.076;2023-11-19T09:10:53;100664.50;;;12.72;100.00
74163;BME280;62515;52.758;5.076;2023-11-19T09:13:20;100657.16;;;12.65;100.00
74163;BME280;62515;52.758;5.076;2023-11-19T09:15:46;100662.59;;;12.74;100.00
74163;BME280;62515;52.758;5.076;2023-11-19T09:18:13;100658.53;;;12.80;100.00
74163;BME280;62515;52.758;5.076;2023-11-19T09:20:42;100669.03;;;12.92;100.00
74163;BME280;62515;52.758;5.076;2023-11-19T09:23:09;100655.88;;;12.80;100.00
74163;BME280;62515;52.758;5.076;2023-11-19T09:25:36;100656.16;;;12.66;100.00
74163;BME280;62515;52.758;5.076;2023-11-19T09:28:05;100661.69;;;12.53;100.00
74163;BME280;62515;52.758;5.076;2023-11-19T09:30:32;100666.31;;;12.51;100.00
74163;BME280;62515;52.758;5.076;2023-11-19T09:32:59;100676.06;;;12.30;100.00
74163;BME280;62515;52.758;5.076;2023-11-19T09:35:26;100679.22;;;12.35;100.00
74163;BME280;62515;52.758;5.076;2023-11-19T09:37:54;100659.16;;;12.51;100.00
74163;BME280;62515;52.758;5.076;2023-11-19T09:40:21;100657.41;;;13.14;100.00
74163;BME280;62515;52.758;5.076;2023-11-19T09:42:48;100662.38;;;13.19;100.00
74163;BME280;62515;52.758;5.076;2023-11-19T09:45:15;100683.28;;;13.14;100.00
74163;BME280;62515;52.758;5.076;2023-11-19T09:47:44;100685.41;;;12.99;100.00
74163;BME280;62515;52.758;5.076;2023-11-19T09:50:15;100683.75;;;13.19;100.00
74163;BME280;62515;52.758;5.076;2023-11-19T09:52:43;100681.34;;;13.16;100.00
74163;BME280;62515;52.758;5.076;2023-11-19T09:55:12;100685.78;;;12.94;100.00
74163;BME280;62515;52.758;5.076;2023-11-19T09:57:39;100693.19;;;12.91;100.00
74163;BME280;62515;52.758;5.076;2023-11-19T10:00:07;100684.47;;;12.89;100.00
74163;BME280;62515;52.758;5.076;2023-11-19T10:02:34;100694.38;;;12.98;100.00
74163;BME280;62515;52.758;5.076;2023-11-19T10:05:05;100686.22;;;13.10;100.00
74163;BME280;62515;52.758;5.076;2023-11-19T10:07:33;100686.16;;;13.42;100.00
74163;BME280;62515;52.758;5.076;2023-11-19T10:10:00;100679.41;;;13.69;100.00
74163;BME280;62515;52.758;5.076;2023-11-19T10:12:29;100678.38;;;13.90;100.00
74163;BME280;62515;52.758;5.076;2023-11-19T10:14:56;100684.88;;;13.97;100.00
74163;BME280;62515;52.758;5.076;2023-11-19T10:17:27;100677.91;;;13.85;100.00
74163;BME280;62515;52.758;5.076;2023-11-19T10:19:54;100663.91;;;14.02;100.00
74163;BME280;62515;52.758;5.076;2023-11-19T10:22:22;100663.63;;;14.36;100.00
74163;BME280;62515;52.758;5.076;2023-11-19T10:24:49;100679.59;;;14.17;100.00
74163;BME280;62515;52.758;5.076;2023-11-19T10:27:23;100682.63;;;14.02;100.00
74163;BME280;62515;52.758;5.076;2023-11-19T10:29:52;100680.09;;;13.91;100.00
74163;BME280;62515;52.758;5.076;2023-11-19T10:32:19;100679.28;;;13.49;100.00
74163;BME280;62515;52.758;5.076;2023-11-19T10:35:04;100686.16;;;13.42;100.00
74163;BME280;62515;52.758;5.076;2023-11-19T10:37:31;100689.34;;;13.57;100.00
74163;BME280;62515;52.758;5.076;2023-11-19T10:39:58;100680.47;;;13.56;100.00
74163;BME280;62515;52.758;5.076;2023-11-19T10:42:24;100679.09;;;13.62;100.00
74163;BME280;62515;52.758;5.076;2023-11-19T10:44:52;100670.41;;;13.70;100.00
74163;BME280;62515;52.758;5.076;2023-11-19T10:47:19;100662.28;;;13.81;100.00
74163;BME280;62515;52.758;5.076;2023-11-19T10:50:05;100684.47;;;13.41;100.00
74163;BME280;62515;52.758;5.076;2023-11-19T10:52:32;100678.59;;;13.27;100.00
74163;BME280;62515;52.758;5.076;2023-11-19T10:55:00;100675.16;;;13.04;100.00
74163;BME280;62515;52.758;5.076;2023-11-19T10:57:30;100677.28;;;13.00;100.00
74163;BME280;62515;52.758;5.076;2023-11-19T11:00:01;100680.31;;;12.96;100.00
74163;BME280;62515;52.758;5.076;2023-11-19T11:02:30;100686.78;;;12.93;100.00
74163;BME280;62515;52.758;5.076;2023-11-19T11:05:01;100679.53;;;13.05;100.00
74163;BME280;62515;52.758;5.076;2023-11-19T11:07:28;100672.50;;;13.04;100.00
74163;BME280;62515;52.758;5.076;2023-11-19T11:10:07;100666.06;;;13.06;100.00
74163;BME280;62515;52.758;5.076;2023-11-19T11:12:36;100664.03;;;12.99;100.00
74163;BME280;62515;52.758;5.076;2023-11-19T11:15:06;100679.22;;;12.98;100.00
74163;BME280;62515;52.758;5.076;2023-11-19T11:17:33;100670.75;;;12.93;100.00
74163;BME280;62515;52.758;5.076;2023-11-19T11:20:01;100672.31;;;12.96;100.00
74163;BME280;62515;52.758;5.076;2023-11-19T11:22:28;100677.72;;;13.05;100.00
74163;BME280;62515;52.758;5.076;2023-11-19T11:25:11;100674.94;;;13.28;100.00
74163;BME280;62515;52.758;5.076;2023-11-19T11:27:53;100665.53;;;13.54;100.00
74163;BME280;62515;52.758;5.076;2023-11-19T11:30:32;100663.84;;;13.83;100.00
74163;BME280;62515;52.758;5.076;2023-11-19T11:33:14;100661.09;;;13.94;100.00
74163;BME280;62515;52.758;5.076;2023-11-19T11:35:53;100662.94;;;13.73;100.00
74163;BME280;62515;52.758;5.076;2023-11-19T11:38:22;100658.69;;;13.61;100.00
74163;BME280;62515;52.758;5.076;2023-11-19T11:41:16;100661.31;;;13.51;100.00
74163;BME280;62515;52.758;5.076;2023-11-19T11:43:44;100659.06;;;13.56;100.00
74163;BME280;62515;52.758;5.076;2023-11-19T11:49:12;100661.94;;;13.65;100.00
74163;BME280;62515;52.758;5.076;2023-11-19T11:51:58;100649.09;;;13.98;100.00
74163;BME280;62515;52.758;5.076;2023-11-19T11:54:28;100662.66;;;14.06;100.00
74163;BME280;62515;52.758;5.076;2023-11-19T11:57:03;100646.59;;;14.06;100.00
74163;BME280;62515;52.758;5.076;2023-11-19T11:59:37;100654.63;;;14.06;100.00
74163;BME280;62515;52.758;5.076;2023-11-19T12:02:04;100662.28;;;13.81;100.00
74163;BME280;62515;52.758;5.076;2023-11-19T12:04:34;100664.19;;;13.69;100.00
74163;BME280;62515;52.758;5.076;2023-11-19T12:07:05;100661.13;;;13.74;100.00
74163;BME280;62515;52.758;5.076;2023-11-19T12:09:32;100671.78;;;13.64;100.00
74163;BME280;62515;52.758;5.076;2023-11-19T12:12:18;100659.38;;;13.63;100.00
74163;BME280;62515;52.758;5.076;2023-11-19T12:15:03;100669.38;;;13.61;100.00
74163;BME280;62515;52.758;5.076;2023-11-19T12:17:41;100655.16;;;13.60;100.00
74163;BME280;62515;52.758;5.076;2023-11-19T12:20:09;100645.84;;;13.55;100.00
74163;BME280;62515;52.758;5.076;2023-11-19T12:22:37;100656.63;;;13.44;100.00
74163;BME280;62515;52.758;5.076;2023-11-19T12:25:04;100658.97;;;13.37;100.00
74163;BME280;62515;52.758;5.076;2023-11-19T12:27:32;100649.25;;;13.36;100.00
74163;BME280;62515;52.758;5.076;2023-11-19T12:29:58;100649.28;;;13.16;100.00
74163;BME280;62515;52.758;5.076;2023-11-19T12:32:25;100658.00;;;13.18;100.00
74163;BME280;62515;52.758;5.076;2023-11-19T12:34:53;100646.53;;;13.27;100.00
74163;BME280;62515;52.758;5.076;2023-11-19T12:37:21;100651.53;;;13.20;100.00
74163;BME280;62515;52.758;5.076;2023-11-19T12:39:48;100649.41;;;13.14;100.00
74163;BME280;62515;52.758;5.076;2023-11-19T12:42:15;100649.19;;;13.06;100.00
74163;BME280;62515;52.758;5.076;2023-11-19T12:44:54;100648.72;;;13.01;100.00
74163;BME280;62515;52.758;5.076;2023-11-19T12:47:21;100642.13;;;13.05;100.00